Portada
METAR-TAF:

METAR-TAF

Aeropuertos :

Aeropuerto Internacional Hato

Curazao, Antillas Neerlandesas

latitud: 12-12N, longitud: 068-58W, altitud: 9 m

Observación

El informe se hizo hace 41 minutos, a las 00:00 UTC
Viento 13 kt del este
Temperatura 28°C
Humedad 74%
Presión 1010 hPa
Visibilidad 10 km o más
Nubes dispersas a una altura de 1800 ft

METAR: TNCC 170000Z 10013KT 9999 SCT018 28/23 Q1010 NOSIG

Hora: 20:41 (00:41 UTC)

Pronóstico

El informe se hizo hace 2 horas y 57 minutos, a las 21:44 UTC
Pronóstico válido del 17 a las 00 UTC al 17 a las 24 UTC
Viento 13 kt del este con ráfagas de 25 kt
Visibilidad 10 km o más
Nubes dispersas a una altura de 2200 ft
Temporalmente
del 17 a las 02 UTC al 17 a las 16 UTC
Cielo nuboso a una altura de 1500 ft
Probabilidad 30%
del 17 a las 06 UTC al 17 a las 16 UTC
Visibilidad: 3000 m
chaparrones de lluvia

TAF: TNCC 162144Z 1700/1724 10013G25KT 9999 SCT022 TEMPO 1702/1716 BKN015 PROB30 1706/1716 3000 SHRA

Observaciones y pronósticos meteorológicos de más de 4000 aeropuertos (mensajes METAR y TAF).

Los puntos amarillos y rojos representan las estaciones disponibles.

Ponga el ratón en el punto deseado para ver el nombre de la estación.

Haga clic para ver las observaciones y los pronósticos meteorológicos.

Para cambiar el mapa : haga clic en los botones verdes con una cruz de color negro para hacer un zoom, en el botón verde con un guión para alejar o en las flechas verdes para mapas adyacentes.


METAR-TAF: